Time;durP1;ratioP1;P1;durP2;ratioP2;P2;SDS_P1;SDS_P2;PMS_P1;PMS_P2;Temp;Humidity;BMP_temperature;BMP_pressure;BME280_temperature;BME280_humidity;BME280_pressure;Samples;Min_cycle;Max_cycle;Signal;HPM_P1;HPM_P2
2022/08/02 00:00:46;;;;;;;;;;;17.90;99.90;;;;;;4962173;28;20355;-81
2022/08/02 00:03:11;;;;;;;;;;;17.90;99.90;;;;;;4948456;29;19910;-79
2022/08/02 00:05:37;;;;;;;;;;;17.90;99.90;;;;;;4940808;29;19933;-81
2022/08/02 00:08:03;;;;;;;;;;;17.90;99.90;;;;;;4933147;29;19926;-81
2022/08/02 00:10:28;;;;;;;;;;;17.90;99.90;;;;;;4952014;29;19918;-80
2022/08/02 00:12:54;;;;;;;;;;;17.90;99.90;;;;;;4948699;28;19917;-82
2022/08/02 00:15:20;;;;;;;;;;;17.80;99.90;;;;;;4936849;28;19918;-81
2022/08/02 00:17:45;;;;;;;;;;;17.80;99.90;;;;;;4953960;28;19914;-80
2022/08/02 00:20:11;;;;;;;;;;;17.80;99.90;;;;;;4945966;28;19911;-81
2022/08/02 00:22:37;;;;;;;;;;;17.70;99.90;;;;;;4952153;29;19978;-80
2022/08/02 00:25:03;;;;;;;;;;;17.70;99.90;;;;;;4934851;29;19915;-79
2022/08/02 00:27:28;;;;;;;;;;;17.70;99.90;;;;;;4949287;28;19915;-82
2022/08/02 00:29:54;;;;;;;;;;;17.60;99.90;;;;;;4929759;29;19919;-81
2022/08/02 00:32:21;;;;;;;;;;;17.60;99.90;;;;;;4951351;29;19918;-81
2022/08/02 00:34:46;;;;;;;;;;;17.50;99.90;;;;;;4952198;28;19915;-80
2022/08/02 00:37:12;;;;;;;;;;;17.50;99.90;;;;;;4953532;28;19914;-81
2022/08/02 00:39:38;;;;;;;;;;;17.50;99.90;;;;;;4950756;29;19911;-81
2022/08/02 00:42:03;;;;;;;;;;;17.50;99.90;;;;;;4951560;29;19917;-81
2022/08/02 00:44:29;;;;;;;;;;;17.40;99.90;;;;;;4966860;28;19945;-80
2022/08/02 00:46:55;;;;;;;;;;;17.40;99.90;;;;;;4951556;28;19969;-80
2022/08/02 00:49:20;;;;;;;;;;;17.40;99.90;;;;;;4933676;28;19923;-80
2022/08/02 00:51:46;;;;;;;;;;;17.30;99.90;;;;;;4963773;28;20312;-82
2022/08/02 00:54:13;;;;;;;;;;;17.30;99.90;;;;;;4947386;29;19921;-79
2022/08/02 00:56:39;;;;;;;;;;;17.30;99.90;;;;;;4950618;28;19985;-80
2022/08/02 00:59:04;;;;;;;;;;;17.30;99.90;;;;;;4946581;28;20382;-82
2022/08/02 01:01:40;;;;;;;;;;;17.20;99.90;;;;;;4949348;29;20394;-81
2022/08/02 01:04:09;;;;;;;;;;;17.20;99.90;;;;;;4947391;29;19998;-80
2022/08/02 01:06:36;;;;;;;;;;;17.20;99.90;;;;;;4948358;28;20480;-83
2022/08/02 01:09:02;;;;;;;;;;;17.20;99.90;;;;;;4952023;29;19970;-81
2022/08/02 01:11:28;;;;;;;;;;;17.10;99.90;;;;;;4945776;28;19911;-80
2022/08/02 01:13:56;;;;;;;;;;;17.10;99.90;;;;;;4946931;29;19918;-82
2022/08/02 01:16:24;;;;;;;;;;;17.10;99.90;;;;;;4950622;28;20009;-81
2022/08/02 01:18:53;;;;;;;;;;;17.10;99.90;;;;;;4952131;28;20721;-81
2022/08/02 01:21:18;;;;;;;;;;;17.00;99.90;;;;;;4948543;29;19938;-81
2022/08/02 01:23:55;;;;;;;;;;;17.00;99.90;;;;;;4964122;28;20260;-82
2022/08/02 01:26:27;;;;;;;;;;;17.00;99.90;;;;;;4966934;28;19914;-81
2022/08/02 01:28:52;;;;;;;;;;;16.90;99.90;;;;;;4967195;28;19915;-79
2022/08/02 01:31:18;;;;;;;;;;;16.90;99.90;;;;;;4950692;28;20381;-82
2022/08/02 01:33:58;;;;;;;;;;;16.90;99.90;;;;;;4954329;28;19934;-80
2022/08/02 01:36:26;;;;;;;;;;;16.80;99.90;;;;;;4958215;28;20413;-81
2022/08/02 01:38:53;;;;;;;;;;;16.80;99.90;;;;;;4953837;28;19915;-81
2022/08/02 01:41:21;;;;;;;;;;;16.80;99.90;;;;;;4952477;28;20338;-80
2022/08/02 01:43:48;;;;;;;;;;;16.80;99.90;;;;;;4966168;28;19914;-83
2022/08/02 01:46:15;;;;;;;;;;;16.70;99.90;;;;;;4949039;28;19927;-79
2022/08/02 01:48:42;;;;;;;;;;;16.70;99.90;;;;;;4961016;28;19961;-83
2022/08/02 01:51:11;;;;;;;;;;;16.70;99.90;;;;;;4941704;29;19920;-81
2022/08/02 01:53:37;;;;;;;;;;;16.70;99.90;;;;;;4949633;28;19965;-81
2022/08/02 01:56:04;;;;;;;;;;;16.70;99.90;;;;;;4948127;28;19922;-81
2022/08/02 01:58:31;;;;;;;;;;;16.60;99.90;;;;;;4951800;28;19914;-82
2022/08/02 02:00:57;;;;;;;;;;;16.60;99.90;;;;;;4951011;29;20375;-81
2022/08/02 02:03:23;;;;;;;;;;;16.60;99.90;;;;;;4950796;29;19917;-80
2022/08/02 02:05:54;;;;;;;;;;;16.60;99.90;;;;;;4953709;28;19915;-80
2022/08/02 02:08:31;;;;;;;;;;;16.50;99.90;;;;;;4951114;29;19961;-80
2022/08/02 02:10:57;;;;;;;;;;;16.50;99.90;;;;;;4945075;28;20451;-81
2022/08/02 02:13:23;;;;;;;;;;;16.40;99.90;;;;;;4950009;28;20016;-80
2022/08/02 02:15:50;;;;;;;;;;;16.40;99.90;;;;;;4950237;29;19957;-81
2022/08/02 02:18:26;;;;;;;;;;;16.40;99.90;;;;;;4943522;29;20022;-81
2022/08/02 02:20:53;;;;;;;;;;;16.40;99.90;;;;;;4965963;28;20005;-82
2022/08/02 02:23:18;;;;;;;;;;;16.40;99.90;;;;;;4949825;28;19942;-80
2022/08/02 02:25:44;;;;;;;;;;;16.40;99.90;;;;;;4938970;28;19940;-82
2022/08/02 02:28:12;;;;;;;;;;;16.40;99.90;;;;;;4950699;28;19976;-81
2022/08/02 02:30:40;;;;;;;;;;;16.40;99.90;;;;;;4923519;29;19953;-80
2022/08/02 02:33:06;;;;;;;;;;;16.40;99.90;;;;;;4958694;28;19914;-80
2022/08/02 02:35:35;;;;;;;;;;;16.40;99.90;;;;;;4935590;28;19914;-80
2022/08/02 02:38:03;;;;;;;;;;;16.40;99.90;;;;;;4931192;29;19919;-81
2022/08/02 02:40:29;;;;;;;;;;;16.30;99.90;;;;;;4922230;29;19922;-81
2022/08/02 02:42:55;;;;;;;;;;;16.30;99.90;;;;;;4954956;28;19910;-81
2022/08/02 02:45:21;;;;;;;;;;;16.30;99.90;;;;;;4951464;28;19907;-81
2022/08/02 02:47:48;;;;;;;;;;;16.30;99.90;;;;;;4950771;28;19925;-81
2022/08/02 02:50:15;;;;;;;;;;;16.30;99.90;;;;;;4951094;28;20411;-80
2022/08/02 02:52:41;;;;;;;;;;;16.30;99.90;;;;;;4952988;28;20024;-81
2022/08/02 02:55:08;;;;;;;;;;;16.30;99.90;;;;;;4952805;29;19914;-81
2022/08/02 02:57:35;;;;;;;;;;;16.30;99.90;;;;;;4958729;28;19907;-81
2022/08/02 03:00:01;;;;;;;;;;;16.30;99.90;;;;;;4953798;28;20058;-80
2022/08/02 03:02:27;;;;;;;;;;;16.30;99.90;;;;;;4954593;29;19917;-79
2022/08/02 03:04:54;;;;;;;;;;;16.30;99.90;;;;;;4954093;28;20284;-80
2022/08/02 03:07:19;;;;;;;;;;;16.30;99.90;;;;;;4954399;28;19961;-80
2022/08/02 03:09:45;;;;;;;;;;;16.30;99.90;;;;;;4954236;28;19985;-81
2022/08/02 03:12:11;;;;;;;;;;;16.20;99.90;;;;;;4938256;29;20338;-82
2022/08/02 03:14:42;;;;;;;;;;;16.20;99.90;;;;;;4952942;28;19937;-83
2022/08/02 03:17:08;;;;;;;;;;;16.20;99.90;;;;;;4940517;28;19942;-81
2022/08/02 03:19:34;;;;;;;;;;;16.20;99.90;;;;;;4954225;28;20401;-81
2022/08/02 03:21:59;;;;;;;;;;;16.20;99.90;;;;;;4954324;28;20009;-82
2022/08/02 03:24:25;;;;;;;;;;;16.20;99.90;;;;;;4949228;29;19915;-80
2022/08/02 03:26:51;;;;;;;;;;;16.20;99.90;;;;;;4952687;29;19919;-80
2022/08/02 03:29:16;;;;;;;;;;;16.20;99.90;;;;;;4950400;29;19918;-80
2022/08/02 03:31:44;;;;;;;;;;;16.20;99.90;;;;;;4961451;28;20383;-79
2022/08/02 03:34:10;;;;;;;;;;;16.20;99.90;;;;;;4939410;28;19918;-81
2022/08/02 03:36:36;;;;;;;;;;;16.20;99.90;;;;;;4951609;28;19926;-80
2022/08/02 03:39:02;;;;;;;;;;;16.20;99.90;;;;;;4950292;29;19915;-82
2022/08/02 03:41:28;;;;;;;;;;;16.20;99.90;;;;;;4952448;28;20298;-81
2022/08/02 03:43:54;;;;;;;;;;;16.20;99.90;;;;;;4968297;28;19921;-82
2022/08/02 03:46:21;;;;;;;;;;;16.20;99.90;;;;;;4945178;28;19918;-81
2022/08/02 03:48:48;;;;;;;;;;;16.10;99.90;;;;;;4933310;29;19926;-82
2022/08/02 03:51:14;;;;;;;;;;;16.00;99.90;;;;;;4955037;28;19911;-81
2022/08/02 03:53:40;;;;;;;;;;;16.00;99.90;;;;;;4949117;29;20356;-80
2022/08/02 03:56:06;;;;;;;;;;;16.00;99.90;;;;;;4948263;28;19910;-80
2022/08/02 03:58:32;;;;;;;;;;;16.00;99.90;;;;;;4944842;28;19911;-82
2022/08/02 04:00:58;;;;;;;;;;;16.00;99.90;;;;;;4953368;28;19910;-81
2022/08/02 04:03:24;;;;;;;;;;;15.90;99.90;;;;;;4954105;28;19941;-81
2022/08/02 04:05:50;;;;;;;;;;;15.90;99.90;;;;;;4953431;28;19918;-82
2022/08/02 04:08:15;;;;;;;;;;;15.90;99.90;;;;;;4952372;28;19989;-81
2022/08/02 04:13:27;;;;;;;;;;;15.90;99.90;;;;;;4932401;29;20359;-82
2022/08/02 04:15:56;;;;;;;;;;;15.80;99.90;;;;;;4962214;28;19937;-81
2022/08/02 04:18:24;;;;;;;;;;;15.80;99.90;;;;;;4936907;28;20006;-81
2022/08/02 04:20:50;;;;;;;;;;;15.80;99.90;;;;;;4947678;28;19915;-81
2022/08/02 04:23:16;;;;;;;;;;;15.80;99.90;;;;;;4941996;28;19921;-80
2022/08/02 04:25:43;;;;;;;;;;;15.80;99.90;;;;;;4958293;28;19911;-80
2022/08/02 04:28:09;;;;;;;;;;;15.80;99.90;;;;;;4962681;28;19922;-81
2022/08/02 04:30:36;;;;;;;;;;;15.90;99.90;;;;;;4951881;28;19966;-80
2022/08/02 04:33:01;;;;;;;;;;;15.90;99.90;;;;;;4932953;29;19913;-81
2022/08/02 04:35:27;;;;;;;;;;;15.90;99.90;;;;;;4958956;28;20330;-82
2022/08/02 04:37:53;;;;;;;;;;;15.90;99.90;;;;;;4932163;29;19915;-82
2022/08/02 04:40:19;;;;;;;;;;;15.90;99.90;;;;;;4949411;29;19910;-82
2022/08/02 04:42:44;;;;;;;;;;;15.90;99.90;;;;;;4950925;29;20526;-83
2022/08/02 04:45:10;;;;;;;;;;;15.90;99.90;;;;;;4945100;28;19918;-80
2022/08/02 04:47:36;;;;;;;;;;;16.00;99.90;;;;;;4935358;29;19918;-82
2022/08/02 04:50:02;;;;;;;;;;;16.00;99.90;;;;;;4950703;28;20252;-80
2022/08/02 04:52:27;;;;;;;;;;;16.10;99.90;;;;;;4934331;29;19918;-82
2022/08/02 04:54:53;;;;;;;;;;;16.10;99.90;;;;;;4930989;29;20009;-81
2022/08/02 05:00:04;;;;;;;;;;;16.20;99.90;;;;;;4951573;28;19917;-79
2022/08/02 05:02:30;;;;;;;;;;;16.30;99.90;;;;;;4950333;29;19920;-82
2022/08/02 05:04:55;;;;;;;;;;;16.30;99.90;;;;;;4929698;29;20005;-81
2022/08/02 05:07:21;;;;;;;;;;;16.40;99.90;;;;;;4963072;28;19919;-84
2022/08/02 05:09:47;;;;;;;;;;;16.50;99.90;;;;;;4949416;28;19910;-82
2022/08/02 05:12:12;;;;;;;;;;;16.60;99.90;;;;;;4948678;29;19943;-81
2022/08/02 05:14:38;;;;;;;;;;;16.70;99.90;;;;;;4933422;29;19914;-82
2022/08/02 05:17:03;;;;;;;;;;;16.70;99.90;;;;;;4945133;28;19993;-82
2022/08/02 05:19:29;;;;;;;;;;;16.80;99.90;;;;;;4936674;29;20127;-82
2022/08/02 05:21:55;;;;;;;;;;;16.80;99.90;;;;;;4950692;29;19937;-81
2022/08/02 05:24:20;;;;;;;;;;;16.90;99.90;;;;;;4934617;29;19914;-82
2022/08/02 05:26:46;;;;;;;;;;;17.00;99.90;;;;;;4934656;29;19938;-81
2022/08/02 05:29:12;;;;;;;;;;;17.10;99.90;;;;;;4947665;29;19949;-81
2022/08/02 05:31:37;;;;;;;;;;;17.20;99.90;;;;;;4950496;28;19918;-81
2022/08/02 05:34:03;;;;;;;;;;;17.40;99.90;;;;;;4948647;28;19910;-81
2022/08/02 05:36:28;;;;;;;;;;;17.50;99.90;;;;;;4942391;28;19910;-82
2022/08/02 05:38:54;;;;;;;;;;;17.70;99.90;;;;;;4931539;29;19918;-83
2022/08/02 05:41:20;;;;;;;;;;;18.00;99.90;;;;;;4950887;28;19914;-82
2022/08/02 05:43:46;;;;;;;;;;;18.20;99.90;;;;;;4945491;29;20833;-81
2022/08/02 05:46:12;;;;;;;;;;;18.60;99.90;;;;;;4934402;29;19910;-80
2022/08/02 05:48:37;;;;;;;;;;;19.00;99.90;;;;;;4949284;28;19914;-81
2022/08/02 05:51:23;;;;;;;;;;;19.40;99.90;;;;;;4959790;28;19926;-81
2022/08/02 05:53:50;;;;;;;;;;;19.80;99.90;;;;;;4929813;29;20482;-81
2022/08/02 05:56:22;;;;;;;;;;;20.30;99.90;;;;;;4946254;28;19995;-81
2022/08/02 05:58:52;;;;;;;;;;;20.70;99.90;;;;;;4947877;28;20002;-81
2022/08/02 06:01:23;;;;;;;;;;;21.00;99.90;;;;;;4962218;28;20316;-81
2022/08/02 06:03:50;;;;;;;;;;;21.20;99.90;;;;;;4934415;29;19911;-82
2022/08/02 06:06:21;;;;;;;;;;;21.40;99.90;;;;;;4968509;28;20523;-82
2022/08/02 06:08:49;;;;;;;;;;;21.70;99.90;;;;;;4936938;29;19914;-83
2022/08/02 06:11:19;;;;;;;;;;;22.00;99.90;;;;;;4953352;29;19997;-82
2022/08/02 06:13:45;;;;;;;;;;;22.20;99.90;;;;;;4952866;28;19915;-80
2022/08/02 06:16:11;;;;;;;;;;;22.40;99.90;;;;;;4965124;28;19937;-82
2022/08/02 06:18:37;;;;;;;;;;;22.50;99.90;;;;;;4947490;29;19929;-81
2022/08/02 06:21:03;;;;;;;;;;;22.80;99.90;;;;;;4952833;28;19920;-81
2022/08/02 06:23:30;;;;;;;;;;;23.00;99.90;;;;;;4953899;28;20220;-83
2022/08/02 06:25:56;;;;;;;;;;;23.00;99.90;;;;;;4952318;28;19937;-83
2022/08/02 06:28:22;;;;;;;;;;;23.40;99.90;;;;;;4954635;28;20421;-82
2022/08/02 06:30:48;;;;;;;;;;;23.80;99.90;;;;;;4952713;29;20014;-82
2022/08/02 06:33:14;;;;;;;;;;;24.20;99.90;;;;;;4951774;28;20593;-82
2022/08/02 06:35:43;;;;;;;;;;;24.40;99.90;;;;;;4952314;28;19921;-82
2022/08/02 06:38:11;;;;;;;;;;;24.60;99.90;;;;;;4935344;29;20350;-82
2022/08/02 06:40:59;;;;;;;;;;;24.80;99.90;;;;;;4967204;28;19910;-83
2022/08/02 06:43:25;;;;;;;;;;;24.90;99.90;;;;;;4945947;28;19914;-82
2022/08/02 06:45:51;;;;;;;;;;;25.00;99.90;;;;;;4963098;28;19906;-82
2022/08/02 06:48:16;;;;;;;;;;;25.00;99.90;;;;;;4953123;29;19991;-82
2022/08/02 06:50:43;;;;;;;;;;;24.80;99.90;;;;;;4953643;28;19911;-82
2022/08/02 06:53:08;;;;;;;;;;;24.80;99.90;;;;;;4952556;29;19918;-81
2022/08/02 06:55:34;;;;;;;;;;;24.80;99.90;;;;;;4968688;28;19964;-82
2022/08/02 06:58:01;;;;;;;;;;;25.10;99.90;;;;;;4952436;28;20489;-81
2022/08/02 07:00:29;;;;;;;;;;;25.30;99.90;;;;;;4955349;28;19914;-83
2022/08/02 07:02:55;;;;;;;;;;;25.50;99.90;;;;;;4953084;28;19918;-80
2022/08/02 07:05:20;;;;;;;;;;;25.70;99.70;;;;;;4950150;28;19940;-80
2022/08/02 07:07:46;;;;;;;;;;;25.60;99.90;;;;;;4955116;28;19918;-82
2022/08/02 07:10:12;;;;;;;;;;;25.40;99.30;;;;;;4956379;28;19972;-80
2022/08/02 07:12:38;;;;;;;;;;;25.30;98.20;;;;;;4933648;29;19957;-82
2022/08/02 07:15:05;;;;;;;;;;;25.30;98.80;;;;;;4952425;28;19919;-81
2022/08/02 07:17:31;;;;;;;;;;;25.60;99.70;;;;;;4949777;28;19915;-80
2022/08/02 07:19:57;;;;;;;;;;;26.00;99.50;;;;;;4945340;28;20002;-80
2022/08/02 07:22:25;;;;;;;;;;;26.40;97.50;;;;;;4953304;28;19953;-82
2022/08/02 07:24:51;;;;;;;;;;;26.90;96.90;;;;;;4945076;28;19911;-81
2022/08/02 07:27:17;;;;;;;;;;;27.10;94.80;;;;;;4946557;28;20471;-82
2022/08/02 07:29:43;;;;;;;;;;;27.30;94.30;;;;;;4931022;29;19923;-81
2022/08/02 07:32:08;;;;;;;;;;;27.30;93.80;;;;;;4948244;28;19993;-80
2022/08/02 07:34:34;;;;;;;;;;;27.50;94.10;;;;;;4957442;28;19914;-81
2022/08/02 07:37:00;;;;;;;;;;;27.80;93.60;;;;;;4948980;29;19926;-80
2022/08/02 07:39:26;;;;;;;;;;;28.10;92.40;;;;;;4948797;28;19910;-82
2022/08/02 07:41:52;;;;;;;;;;;27.70;90.40;;;;;;4946802;28;19915;-80
2022/08/02 07:44:17;;;;;;;;;;;27.80;91.00;;;;;;4944434;28;19922;-82
2022/08/02 07:46:44;;;;;;;;;;;28.00;90.80;;;;;;4961469;28;19981;-82
2022/08/02 07:49:09;;;;;;;;;;;28.10;89.30;;;;;;4959453;28;19915;-82
2022/08/02 07:51:35;;;;;;;;;;;28.10;89.40;;;;;;4928411;29;19950;-82
2022/08/02 07:54:01;;;;;;;;;;;28.20;89.70;;;;;;4956932;28;20576;-81
2022/08/02 07:56:26;;;;;;;;;;;28.30;86.50;;;;;;4941687;28;19958;-81
2022/08/02 07:58:53;;;;;;;;;;;28.50;88.00;;;;;;4932006;29;19938;-80
2022/08/02 08:01:18;;;;;;;;;;;28.60;87.30;;;;;;4946443;28;20009;-81
2022/08/02 08:03:44;;;;;;;;;;;29.00;86.60;;;;;;4947955;28;20001;-81
2022/08/02 08:06:10;;;;;;;;;;;29.20;82.70;;;;;;4945732;28;20567;-81
2022/08/02 08:08:35;;;;;;;;;;;29.20;83.20;;;;;;4948289;28;19973;-81
2022/08/02 08:11:01;;;;;;;;;;;28.90;83.90;;;;;;4929851;29;20077;-82
2022/08/02 08:13:27;;;;;;;;;;;28.90;84.10;;;;;;4944957;28;19942;-83
2022/08/02 08:15:53;;;;;;;;;;;28.80;84.00;;;;;;4959896;28;19910;-79
2022/08/02 08:18:19;;;;;;;;;;;28.70;85.60;;;;;;4946924;29;19957;-80
2022/08/02 08:20:45;;;;;;;;;;;28.60;86.90;;;;;;4932546;29;19914;-80
2022/08/02 08:23:10;;;;;;;;;;;28.50;87.50;;;;;;4948266;28;19981;-81
2022/08/02 08:25:36;;;;;;;;;;;28.40;89.00;;;;;;4958255;28;19992;-81
2022/08/02 08:28:02;;;;;;;;;;;28.40;87.50;;;;;;4967577;28;20618;-80
2022/08/02 08:30:27;;;;;;;;;;;28.30;84.40;;;;;;4953240;28;19982;-82
2022/08/02 08:32:53;;;;;;;;;;;28.20;82.70;;;;;;4953351;29;19914;-81
2022/08/02 08:35:19;;;;;;;;;;;27.90;85.20;;;;;;4954560;28;20310;-83
2022/08/02 08:37:44;;;;;;;;;;;27.70;87.00;;;;;;4948597;28;20040;-83
2022/08/02 08:40:11;;;;;;;;;;;27.60;86.40;;;;;;4940234;29;20022;-81
2022/08/02 08:42:37;;;;;;;;;;;27.60;87.80;;;;;;4947188;28;19950;-84
2022/08/02 08:45:03;;;;;;;;;;;27.70;85.70;;;;;;4960223;28;19914;-81
2022/08/02 08:47:33;;;;;;;;;;;27.70;85.70;;;;;;4966056;28;20005;-82
2022/08/02 08:50:00;;;;;;;;;;;27.70;85.10;;;;;;4966778;28;19921;-80
2022/08/02 08:52:26;;;;;;;;;;;27.70;84.70;;;;;;4953269;29;19910;-81
2022/08/02 08:54:51;;;;;;;;;;;27.60;85.10;;;;;;4947317;29;19918;-82
2022/08/02 08:57:19;;;;;;;;;;;27.40;84.50;;;;;;4964651;28;19922;-80
2022/08/02 08:59:44;;;;;;;;;;;27.10;81.00;;;;;;4968120;28;20477;-81
2022/08/02 09:02:10;;;;;;;;;;;27.00;86.40;;;;;;4953456;28;19914;-82
2022/08/02 09:04:36;;;;;;;;;;;26.90;83.70;;;;;;4951904;29;19915;-81
2022/08/02 09:07:02;;;;;;;;;;;26.60;80.80;;;;;;4956843;28;20558;-80
2022/08/02 09:09:27;;;;;;;;;;;26.50;83.00;;;;;;4942789;29;20399;-81
2022/08/02 09:11:53;;;;;;;;;;;26.50;85.60;;;;;;4952915;28;19914;-80
2022/08/02 09:14:28;;;;;;;;;;;26.50;84.50;;;;;;4934034;28;19910;-81
2022/08/02 09:17:04;;;;;;;;;;;26.50;87.20;;;;;;4935063;29;20527;-80
2022/08/02 09:19:30;;;;;;;;;;;26.60;85.10;;;;;;4949016;28;19914;-81
2022/08/02 09:22:00;;;;;;;;;;;26.70;87.00;;;;;;4966096;28;19914;-82
2022/08/02 09:24:26;;;;;;;;;;;26.80;86.80;;;;;;4953352;29;19910;-83
2022/08/02 09:26:52;;;;;;;;;;;27.00;86.70;;;;;;4952411;28;19910;-82
2022/08/02 09:29:21;;;;;;;;;;;27.20;85.30;;;;;;4953429;28;19968;-82
2022/08/02 09:31:47;;;;;;;;;;;27.40;84.70;;;;;;4967768;28;19993;-82
2022/08/02 09:34:13;;;;;;;;;;;27.60;84.70;;;;;;4943927;28;19961;-80
2022/08/02 09:36:43;;;;;;;;;;;27.60;85.40;;;;;;4953893;28;19930;-80
2022/08/02 09:39:11;;;;;;;;;;;27.50;84.10;;;;;;4939773;28;19910;-83
2022/08/02 09:41:40;;;;;;;;;;;27.50;83.60;;;;;;4934944;29;19911;-81
2022/08/02 09:44:06;;;;;;;;;;;27.50;83.10;;;;;;4952253;28;20348;-80
2022/08/02 09:46:36;;;;;;;;;;;27.40;83.80;;;;;;4925683;29;19926;-80
2022/08/02 09:49:03;;;;;;;;;;;27.40;84.10;;;;;;4957831;28;19918;-82
2022/08/02 09:51:28;;;;;;;;;;;27.40;83.50;;;;;;4928109;29;19921;-83
2022/08/02 09:53:55;;;;;;;;;;;27.40;81.60;;;;;;4944913;29;19906;-80
2022/08/02 09:56:21;;;;;;;;;;;27.20;85.30;;;;;;4941050;28;20079;-82
2022/08/02 09:58:48;;;;;;;;;;;27.10;85.60;;;;;;4941139;28;20528;-81
2022/08/02 10:01:14;;;;;;;;;;;27.00;86.30;;;;;;4925998;29;19942;-80
2022/08/02 10:03:53;;;;;;;;;;;27.00;85.10;;;;;;4931408;29;19919;-82
2022/08/02 10:06:19;;;;;;;;;;;27.10;85.30;;;;;;4950577;28;20736;-81
2022/08/02 10:08:44;;;;;;;;;;;27.10;81.70;;;;;;4941518;29;20035;-80
2022/08/02 10:11:11;;;;;;;;;;;27.20;83.10;;;;;;4959153;28;19993;-81
2022/08/02 10:13:37;;;;;;;;;;;27.20;78.80;;;;;;4943009;28;19966;-81
2022/08/02 10:16:03;;;;;;;;;;;27.20;79.30;;;;;;4954909;28;19910;-81
2022/08/02 10:18:29;;;;;;;;;;;27.30;81.20;;;;;;4928642;29;19907;-82
2022/08/02 10:20:55;;;;;;;;;;;27.30;78.80;;;;;;4952699;28;19918;-83
2022/08/02 10:23:24;;;;;;;;;;;27.30;78.80;;;;;;4942656;29;20523;-82
2022/08/02 10:25:50;;;;;;;;;;;27.40;79.80;;;;;;4949138;28;20571;-83
2022/08/02 10:28:17;;;;;;;;;;;27.20;73.90;;;;;;4946338;29;20040;-82
2022/08/02 10:30:44;;;;;;;;;;;27.10;79.90;;;;;;4958657;28;20490;-81
2022/08/02 10:33:10;;;;;;;;;;;27.20;76.60;;;;;;4940159;28;19946;-81
2022/08/02 10:35:37;;;;;;;;;;;27.20;79.10;;;;;;4933825;28;19917;-82
2022/08/02 10:38:07;;;;;;;;;;;27.30;77.50;;;;;;4943471;29;20419;-82
2022/08/02 10:40:43;;;;;;;;;;;27.50;75.60;;;;;;4945046;29;20422;-82
2022/08/02 10:43:09;;;;;;;;;;;27.70;76.30;;;;;;4915094;29;19914;-81
2022/08/02 10:45:35;;;;;;;;;;;27.80;79.60;;;;;;4948862;28;20295;-83
2022/08/02 10:48:08;;;;;;;;;;;27.90;77.40;;;;;;4923517;29;20017;-82
2022/08/02 10:50:45;;;;;;;;;;;28.00;75.00;;;;;;4934913;29;19977;-82
2022/08/02 10:53:31;;;;;;;;;;;28.10;76.70;;;;;;4947898;28;19949;-83
2022/08/02 10:55:59;;;;;;;;;;;28.20;75.10;;;;;;4945301;28;19997;-80
2022/08/02 10:58:27;;;;;;;;;;;28.30;76.80;;;;;;4949325;28;19918;-82
2022/08/02 11:00:53;;;;;;;;;;;28.30;71.30;;;;;;4947383;28;19910;-79
2022/08/02 11:03:28;;;;;;;;;;;28.30;74.50;;;;;;4949382;28;19969;-82
2022/08/02 11:06:04;;;;;;;;;;;28.30;70.30;;;;;;4947558;28;19910;-82
2022/08/02 11:08:30;;;;;;;;;;;28.30;72.40;;;;;;4948938;29;19930;-81
2022/08/02 11:11:00;;;;;;;;;;;28.30;71.80;;;;;;4948821;28;19911;-82
2022/08/02 11:13:26;;;;;;;;;;;28.30;69.30;;;;;;4946556;29;19941;-80
2022/08/02 11:15:54;;;;;;;;;;;28.20;73.40;;;;;;4948661;28;20379;-79
2022/08/02 11:18:20;;;;;;;;;;;28.20;74.40;;;;;;4943525;29;19954;-80
2022/08/02 11:20:46;;;;;;;;;;;28.20;72.60;;;;;;4949442;28;20287;-79
2022/08/02 11:23:30;;;;;;;;;;;28.20;76.80;;;;;;4948791;28;19917;-81
2022/08/02 11:25:56;;;;;;;;;;;28.30;75.30;;;;;;4937173;28;20370;-80
2022/08/02 11:28:22;;;;;;;;;;;28.30;73.80;;;;;;4947970;29;19926;-81
2022/08/02 11:30:54;;;;;;;;;;;28.30;70.40;;;;;;4952286;28;19910;-80
2022/08/02 11:33:20;;;;;;;;;;;28.30;71.10;;;;;;4938152;29;19956;-79
2022/08/02 11:35:46;;;;;;;;;;;28.40;75.60;;;;;;4954713;28;19963;-80
2022/08/02 11:38:16;;;;;;;;;;;28.50;75.90;;;;;;4941440;28;19949;-80
2022/08/02 11:40:43;;;;;;;;;;;28.50;64.20;;;;;;4962765;28;19910;-81
2022/08/02 11:43:16;;;;;;;;;;;28.60;71.20;;;;;;4943829;29;19917;-80
2022/08/02 11:45:42;;;;;;;;;;;28.80;72.70;;;;;;4948015;28;20334;-81
2022/08/02 11:48:07;;;;;;;;;;;29.00;66.20;;;;;;4941421;28;19918;-82
2022/08/02 11:50:33;;;;;;;;;;;28.70;63.00;;;;;;4946274;28;19911;-82
2022/08/02 11:52:59;;;;;;;;;;;28.70;60.90;;;;;;4943650;28;19942;-80
2022/08/02 11:55:29;;;;;;;;;;;28.60;63.10;;;;;;4943897;28;20319;-80
2022/08/02 11:57:58;;;;;;;;;;;28.70;61.60;;;;;;4942627;29;20642;-79
2022/08/02 12:00:24;;;;;;;;;;;29.00;64.60;;;;;;4944489;29;20469;-81
2022/08/02 12:02:50;;;;;;;;;;;29.20;63.50;;;;;;4944412;28;19989;-84
2022/08/02 12:05:21;;;;;;;;;;;29.50;60.60;;;;;;4940799;28;20299;-81
2022/08/02 12:07:46;;;;;;;;;;;29.80;69.00;;;;;;4941699;29;19985;-80
2022/08/02 12:10:14;;;;;;;;;;;30.00;66.70;;;;;;4942277;28;20481;-84
2022/08/02 12:12:56;;;;;;;;;;;30.10;59.40;;;;;;4929858;29;19911;-79
2022/08/02 12:15:29;;;;;;;;;;;30.00;58.10;;;;;;4945157;28;19923;-81
2022/08/02 12:20:39;;;;;;;;;;;29.80;57.60;;;;;;4941905;28;19914;-81
2022/08/02 12:23:05;;;;;;;;;;;29.80;59.90;;;;;;4962579;28;19917;-81
2022/08/02 12:25:31;;;;;;;;;;;29.90;61.40;;;;;;4944210;28;19954;-83
2022/08/02 12:28:15;;;;;;;;;;;29.90;60.60;;;;;;4944375;28;19972;-81
2022/08/02 12:30:51;;;;;;;;;;;30.00;58.10;;;;;;4946730;28;20780;-81
2022/08/02 12:33:17;;;;;;;;;;;30.10;60.10;;;;;;4926094;29;19958;-81
2022/08/02 12:35:42;;;;;;;;;;;30.30;57.10;;;;;;4944091;28;20009;-80
2022/08/02 12:38:09;;;;;;;;;;;30.60;57.50;;;;;;4944466;28;19925;-81
2022/08/02 12:40:35;;;;;;;;;;;30.70;52.80;;;;;;4944220;29;19914;-80
2022/08/02 12:43:02;;;;;;;;;;;30.30;51.80;;;;;;4955065;28;19997;-80
2022/08/02 12:45:29;;;;;;;;;;;30.20;53.40;;;;;;4944028;28;19918;-79
2022/08/02 12:47:57;;;;;;;;;;;30.30;56.70;;;;;;4944469;28;19924;-81
2022/08/02 12:50:22;;;;;;;;;;;30.40;55.30;;;;;;4943014;28;19915;-81
2022/08/02 12:52:48;;;;;;;;;;;30.40;54.80;;;;;;4955460;28;19947;-82
2022/08/02 12:55:19;;;;;;;;;;;30.50;57.80;;;;;;4943360;28;19914;-81
2022/08/02 12:58:01;;;;;;;;;;;30.70;51.60;;;;;;4926373;29;20290;-80
2022/08/02 13:00:28;;;;;;;;;;;30.80;53.20;;;;;;4947474;28;19993;-83
2022/08/02 13:02:54;;;;;;;;;;;31.20;55.10;;;;;;4940474;29;19922;-81
2022/08/02 13:05:20;;;;;;;;;;;31.40;51.50;;;;;;4947047;28;20644;-80
2022/08/02 13:07:45;;;;;;;;;;;31.60;52.70;;;;;;4946653;28;20408;-81
2022/08/02 13:10:11;;;;;;;;;;;31.50;46.50;;;;;;4944481;28;19973;-79
2022/08/02 13:12:38;;;;;;;;;;;31.40;49.10;;;;;;4933298;29;19961;-81
2022/08/02 13:15:07;;;;;;;;;;;31.40;49.60;;;;;;4941469;28;19911;-78
2022/08/02 13:17:32;;;;;;;;;;;31.50;49.80;;;;;;4944411;28;19962;-82
2022/08/02 13:19:58;;;;;;;;;;;31.60;47.80;;;;;;4941180;29;20512;-79
2022/08/02 13:22:24;;;;;;;;;;;31.70;48.80;;;;;;4947154;28;20415;-83
2022/08/02 13:24:50;;;;;;;;;;;31.80;49.40;;;;;;4945278;28;19914;-81
2022/08/02 13:27:17;;;;;;;;;;;31.90;49.30;;;;;;4944701;28;20290;-79
2022/08/02 13:29:42;;;;;;;;;;;31.80;50.90;;;;;;4947453;28;19921;-80
2022/08/02 13:32:08;;;;;;;;;;;31.80;51.10;;;;;;4960226;28;19997;-80
2022/08/02 13:34:34;;;;;;;;;;;31.70;51.50;;;;;;4961976;28;20016;-80
2022/08/02 13:37:00;;;;;;;;;;;31.50;52.40;;;;;;4960177;28;20022;-80
2022/08/02 13:39:26;;;;;;;;;;;31.50;52.80;;;;;;4946225;28;19911;-80
2022/08/02 13:41:52;;;;;;;;;;;31.30;51.70;;;;;;4945587;28;19919;-79
2022/08/02 13:44:17;;;;;;;;;;;31.00;48.00;;;;;;4946938;28;20318;-82
2022/08/02 13:46:43;;;;;;;;;;;30.60;50.10;;;;;;4946968;28;20389;-82
2022/08/02 13:49:09;;;;;;;;;;;30.40;52.80;;;;;;4945251;28;19932;-80
2022/08/02 13:51:34;;;;;;;;;;;30.20;53.10;;;;;;4942877;29;19926;-80
2022/08/02 13:54:00;;;;;;;;;;;30.20;54.00;;;;;;4944993;29;19925;-80
2022/08/02 13:56:26;;;;;;;;;;;30.20;54.20;;;;;;4944966;28;19981;-81
2022/08/02 13:58:52;;;;;;;;;;;30.20;53.50;;;;;;4955027;28;20379;-81
2022/08/02 14:01:18;;;;;;;;;;;30.20;55.90;;;;;;4943306;28;19922;-80
2022/08/02 14:03:43;;;;;;;;;;;30.20;53.40;;;;;;4944685;28;20320;-81
2022/08/02 14:06:09;;;;;;;;;;;30.20;54.00;;;;;;4943239;28;19922;-83
2022/08/02 14:08:35;;;;;;;;;;;30.20;55.10;;;;;;4947495;29;19933;-80
2022/08/02 14:11:01;;;;;;;;;;;30.00;53.10;;;;;;4943675;28;20534;-80
2022/08/02 14:13:26;;;;;;;;;;;29.80;51.50;;;;;;4941638;29;19915;-79
2022/08/02 14:15:52;;;;;;;;;;;29.70;52.10;;;;;;4940965;28;19925;-79
2022/08/02 14:18:17;;;;;;;;;;;29.60;50.60;;;;;;4958612;28;19919;-81
2022/08/02 14:20:43;;;;;;;;;;;29.40;52.70;;;;;;4953471;28;19922;-80
2022/08/02 14:23:09;;;;;;;;;;;29.40;51.90;;;;;;4947918;29;19914;-81